sensor_id;sensor_type;location;lat;lon;timestamp;P1;durP1;ratioP1;P2;durP2;ratioP2
69754;SDS011;57023;52.218;5.158;2023-08-08T00:00:33;16.73;;;5.95;;
69754;SDS011;57023;52.218;5.158;2023-08-08T00:02:58;13.93;;;5.47;;
69754;SDS011;57023;52.218;5.158;2023-08-08T00:05:24;12.65;;;5.57;;
69754;SDS011;57023;52.218;5.158;2023-08-08T00:07:49;17.58;;;5.70;;
69754;SDS011;57023;52.218;5.158;2023-08-08T00:10:14;12.93;;;5.35;;
69754;SDS011;57023;52.218;5.158;2023-08-08T00:12:40;12.23;;;5.47;;
69754;SDS011;57023;52.218;5.158;2023-08-08T00:15:05;18.00;;;5.68;;
69754;SDS011;57023;52.218;5.158;2023-08-08T00:17:31;14.13;;;5.53;;
69754;SDS011;57023;52.218;5.158;2023-08-08T00:19:56;16.17;;;5.45;;
69754;SDS011;57023;52.218;5.158;2023-08-08T00:22:22;14.35;;;5.20;;
69754;SDS011;57023;52.218;5.158;2023-08-08T00:24:49;13.25;;;5.55;;
69754;SDS011;57023;52.218;5.158;2023-08-08T00:27:15;13.05;;;5.50;;
69754;SDS011;57023;52.218;5.158;2023-08-08T00:29:40;17.48;;;5.72;;
69754;SDS011;57023;52.218;5.158;2023-08-08T00:32:06;12.52;;;5.40;;
69754;SDS011;57023;52.218;5.158;2023-08-08T00:34:31;13.93;;;5.72;;
69754;SDS011;57023;52.218;5.158;2023-08-08T00:36:56;12.90;;;5.03;;
69754;SDS011;57023;52.218;5.158;2023-08-08T00:39:22;17.15;;;5.93;;
69754;SDS011;57023;52.218;5.158;2023-08-08T00:41:47;13.48;;;5.75;;
69754;SDS011;57023;52.218;5.158;2023-08-08T00:44:12;14.98;;;6.07;;
69754;SDS011;57023;52.218;5.158;2023-08-08T00:46:38;17.83;;;5.65;;
69754;SDS011;57023;52.218;5.158;2023-08-08T00:49:03;16.70;;;6.07;;
69754;SDS011;57023;52.218;5.158;2023-08-08T00:51:28;20.05;;;5.63;;
69754;SDS011;57023;52.218;5.158;2023-08-08T00:53:54;19.48;;;6.18;;
69754;SDS011;57023;52.218;5.158;2023-08-08T00:56:19;17.05;;;5.78;;
69754;SDS011;57023;52.218;5.158;2023-08-08T00:58:45;13.45;;;5.60;;
69754;SDS011;57023;52.218;5.158;2023-08-08T01:01:11;14.60;;;5.85;;
69754;SDS011;57023;52.218;5.158;2023-08-08T01:03:37;15.65;;;6.05;;
69754;SDS011;57023;52.218;5.158;2023-08-08T01:06:04;18.30;;;6.30;;
69754;SDS011;57023;52.218;5.158;2023-08-08T01:08:35;20.30;;;6.00;;
69754;SDS011;57023;52.218;5.158;2023-08-08T01:11:05;16.45;;;5.95;;
69754;SDS011;57023;52.218;5.158;2023-08-08T01:13:30;16.48;;;5.72;;
69754;SDS011;57023;52.218;5.158;2023-08-08T01:15:56;18.67;;;6.25;;
69754;SDS011;57023;52.218;5.158;2023-08-08T01:18:22;15.52;;;6.30;;
69754;SDS011;57023;52.218;5.158;2023-08-08T01:20:48;16.70;;;6.13;;
69754;SDS011;57023;52.218;5.158;2023-08-08T01:23:17;15.57;;;5.80;;
69754;SDS011;57023;52.218;5.158;2023-08-08T01:25:44;16.98;;;6.25;;
69754;SDS011;57023;52.218;5.158;2023-08-08T01:28:11;16.77;;;6.40;;
69754;SDS011;57023;52.218;5.158;2023-08-08T01:30:36;15.85;;;5.63;;
69754;SDS011;57023;52.218;5.158;2023-08-08T01:33:02;10.55;;;5.47;;
69754;SDS011;57023;52.218;5.158;2023-08-08T01:35:30;17.27;;;6.00;;
69754;SDS011;57023;52.218;5.158;2023-08-08T01:38:03;12.85;;;5.85;;
69754;SDS011;57023;52.218;5.158;2023-08-08T01:40:31;13.10;;;5.68;;
69754;SDS011;57023;52.218;5.158;2023-08-08T01:42:57;15.18;;;5.90;;
69754;SDS011;57023;52.218;5.158;2023-08-08T01:45:23;15.17;;;5.70;;
69754;SDS011;57023;52.218;5.158;2023-08-08T01:47:50;11.10;;;5.53;;
69754;SDS011;57023;52.218;5.158;2023-08-08T01:50:16;14.32;;;5.65;;
69754;SDS011;57023;52.218;5.158;2023-08-08T01:52:42;13.82;;;5.70;;
69754;SDS011;57023;52.218;5.158;2023-08-08T01:55:07;12.48;;;5.18;;
69754;SDS011;57023;52.218;5.158;2023-08-08T01:57:33;12.68;;;6.05;;
69754;SDS011;57023;52.218;5.158;2023-08-08T01:59:58;12.65;;;5.28;;
69754;SDS011;57023;52.218;5.158;2023-08-08T02:02:23;10.05;;;5.00;;
69754;SDS011;57023;52.218;5.158;2023-08-08T02:04:49;13.80;;;5.10;;
69754;SDS011;57023;52.218;5.158;2023-08-08T02:07:14;13.98;;;5.32;;
69754;SDS011;57023;52.218;5.158;2023-08-08T02:09:40;13.48;;;5.15;;
69754;SDS011;57023;52.218;5.158;2023-08-08T02:12:06;12.48;;;5.00;;
69754;SDS011;57023;52.218;5.158;2023-08-08T02:14:31;13.73;;;4.95;;
69754;SDS011;57023;52.218;5.158;2023-08-08T02:16:56;10.95;;;4.75;;
69754;SDS011;57023;52.218;5.158;2023-08-08T02:19:25;11.63;;;5.35;;
69754;SDS011;57023;52.218;5.158;2023-08-08T02:21:50;11.95;;;5.40;;
69754;SDS011;57023;52.218;5.158;2023-08-08T02:24:15;8.85;;;4.53;;
69754;SDS011;57023;52.218;5.158;2023-08-08T02:26:41;11.32;;;4.88;;
69754;SDS011;57023;52.218;5.158;2023-08-08T02:29:06;9.38;;;4.70;;
69754;SDS011;57023;52.218;5.158;2023-08-08T02:31:31;9.77;;;4.38;;
69754;SDS011;57023;52.218;5.158;2023-08-08T02:33:57;11.73;;;4.63;;
69754;SDS011;57023;52.218;5.158;2023-08-08T02:36:22;11.05;;;4.70;;
69754;SDS011;57023;52.218;5.158;2023-08-08T02:38:47;12.27;;;5.20;;
69754;SDS011;57023;52.218;5.158;2023-08-08T02:41:14;12.63;;;5.05;;
69754;SDS011;57023;52.218;5.158;2023-08-08T02:43:40;9.85;;;4.57;;
69754;SDS011;57023;52.218;5.158;2023-08-08T02:46:05;13.50;;;4.97;;
69754;SDS011;57023;52.218;5.158;2023-08-08T02:48:30;9.68;;;5.07;;
69754;SDS011;57023;52.218;5.158;2023-08-08T02:50:56;8.70;;;4.78;;
69754;SDS011;57023;52.218;5.158;2023-08-08T02:53:21;10.95;;;4.88;;
69754;SDS011;57023;52.218;5.158;2023-08-08T02:55:47;8.95;;;4.70;;
69754;SDS011;57023;52.218;5.158;2023-08-08T02:58:12;7.75;;;4.68;;
69754;SDS011;57023;52.218;5.158;2023-08-08T03:00:37;9.18;;;4.28;;
69754;SDS011;57023;52.218;5.158;2023-08-08T03:03:03;9.70;;;4.68;;
69754;SDS011;57023;52.218;5.158;2023-08-08T03:05:28;10.65;;;4.28;;
69754;SDS011;57023;52.218;5.158;2023-08-08T03:07:54;7.32;;;4.25;;
69754;SDS011;57023;52.218;5.158;2023-08-08T03:10:19;10.45;;;4.55;;
69754;SDS011;57023;52.218;5.158;2023-08-08T03:12:44;9.52;;;4.30;;
69754;SDS011;57023;52.218;5.158;2023-08-08T03:15:10;7.72;;;4.03;;
69754;SDS011;57023;52.218;5.158;2023-08-08T03:17:35;10.10;;;4.55;;
69754;SDS011;57023;52.218;5.158;2023-08-08T03:20:04;8.48;;;4.20;;
69754;SDS011;57023;52.218;5.158;2023-08-08T03:22:31;9.38;;;3.90;;
69754;SDS011;57023;52.218;5.158;2023-08-08T03:24:56;7.30;;;4.20;;
69754;SDS011;57023;52.218;5.158;2023-08-08T03:27:24;9.63;;;3.95;;
69754;SDS011;57023;52.218;5.158;2023-08-08T03:29:50;10.55;;;4.10;;
69754;SDS011;57023;52.218;5.158;2023-08-08T03:32:16;7.82;;;3.90;;
69754;SDS011;57023;52.218;5.158;2023-08-08T03:34:41;9.20;;;4.05;;
69754;SDS011;57023;52.218;5.158;2023-08-08T03:37:07;10.73;;;4.03;;
69754;SDS011;57023;52.218;5.158;2023-08-08T03:39:35;10.65;;;3.90;;
69754;SDS011;57023;52.218;5.158;2023-08-08T03:42:00;9.55;;;3.58;;
69754;SDS011;57023;52.218;5.158;2023-08-08T03:44:26;8.88;;;3.53;;
69754;SDS011;57023;52.218;5.158;2023-08-08T03:46:51;7.45;;;3.83;;
69754;SDS011;57023;52.218;5.158;2023-08-08T03:49:17;7.63;;;4.15;;
69754;SDS011;57023;52.218;5.158;2023-08-08T03:51:42;14.50;;;4.03;;
69754;SDS011;57023;52.218;5.158;2023-08-08T03:54:07;8.35;;;3.90;;
69754;SDS011;57023;52.218;5.158;2023-08-08T03:56:36;9.23;;;3.90;;
69754;SDS011;57023;52.218;5.158;2023-08-08T03:59:01;9.88;;;3.80;;
69754;SDS011;57023;52.218;5.158;2023-08-08T04:01:27;10.43;;;3.95;;
69754;SDS011;57023;52.218;5.158;2023-08-08T04:03:52;8.55;;;3.58;;
69754;SDS011;57023;52.218;5.158;2023-08-08T04:06:17;7.35;;;3.55;;
69754;SDS011;57023;52.218;5.158;2023-08-08T04:08:43;12.02;;;4.00;;
69754;SDS011;57023;52.218;5.158;2023-08-08T04:11:08;9.95;;;3.70;;
69754;SDS011;57023;52.218;5.158;2023-08-08T04:13:33;8.88;;;3.75;;
69754;SDS011;57023;52.218;5.158;2023-08-08T04:15:59;8.82;;;3.47;;
69754;SDS011;57023;52.218;5.158;2023-08-08T04:18:25;10.40;;;3.80;;
69754;SDS011;57023;52.218;5.158;2023-08-08T04:20:53;9.30;;;3.60;;
69754;SDS011;57023;52.218;5.158;2023-08-08T04:23:19;7.53;;;3.25;;
69754;SDS011;57023;52.218;5.158;2023-08-08T04:25:44;9.23;;;3.42;;
69754;SDS011;57023;52.218;5.158;2023-08-08T04:28:09;7.85;;;3.60;;
69754;SDS011;57023;52.218;5.158;2023-08-08T04:30:35;6.47;;;3.33;;
69754;SDS011;57023;52.218;5.158;2023-08-08T04:33:00;9.60;;;3.70;;
69754;SDS011;57023;52.218;5.158;2023-08-08T04:35:25;7.88;;;3.40;;
69754;SDS011;57023;52.218;5.158;2023-08-08T04:37:51;6.55;;;3.20;;
69754;SDS011;57023;52.218;5.158;2023-08-08T04:40:19;7.18;;;3.05;;
69754;SDS011;57023;52.218;5.158;2023-08-08T04:42:45;8.35;;;3.35;;
69754;SDS011;57023;52.218;5.158;2023-08-08T04:45:13;8.38;;;3.40;;
69754;SDS011;57023;52.218;5.158;2023-08-08T04:47:42;8.20;;;3.42;;
69754;SDS011;57023;52.218;5.158;2023-08-08T04:50:08;7.70;;;3.10;;
69754;SDS011;57023;52.218;5.158;2023-08-08T04:52:33;7.70;;;3.20;;
69754;SDS011;57023;52.218;5.158;2023-08-08T04:54:59;7.88;;;3.70;;
69754;SDS011;57023;52.218;5.158;2023-08-08T04:57:24;7.68;;;3.60;;
69754;SDS011;57023;52.218;5.158;2023-08-08T04:59:49;6.82;;;3.75;;
69754;SDS011;57023;52.218;5.158;2023-08-08T05:02:14;8.57;;;3.15;;
69754;SDS011;57023;52.218;5.158;2023-08-08T05:04:41;8.30;;;3.00;;
69754;SDS011;57023;52.218;5.158;2023-08-08T05:07:06;7.80;;;2.78;;
69754;SDS011;57023;52.218;5.158;2023-08-08T05:09:32;6.78;;;2.70;;
69754;SDS011;57023;52.218;5.158;2023-08-08T05:11:57;7.35;;;2.80;;
69754;SDS011;57023;52.218;5.158;2023-08-08T05:14:22;7.95;;;2.90;;
69754;SDS011;57023;52.218;5.158;2023-08-08T05:16:47;6.22;;;2.80;;
69754;SDS011;57023;52.218;5.158;2023-08-08T05:19:13;7.25;;;2.60;;
69754;SDS011;57023;52.218;5.158;2023-08-08T05:21:38;7.57;;;3.10;;
69754;SDS011;57023;52.218;5.158;2023-08-08T05:24:04;6.35;;;2.55;;
69754;SDS011;57023;52.218;5.158;2023-08-08T05:26:29;7.20;;;2.70;;
69754;SDS011;57023;52.218;5.158;2023-08-08T05:28:54;6.15;;;2.70;;
69754;SDS011;57023;52.218;5.158;2023-08-08T05:31:20;6.68;;;2.67;;
69754;SDS011;57023;52.218;5.158;2023-08-08T05:33:45;6.82;;;2.58;;
69754;SDS011;57023;52.218;5.158;2023-08-08T05:36:10;6.47;;;2.80;;
69754;SDS011;57023;52.218;5.158;2023-08-08T05:38:36;7.40;;;2.60;;
69754;SDS011;57023;52.218;5.158;2023-08-08T05:41:01;8.38;;;3.08;;
69754;SDS011;57023;52.218;5.158;2023-08-08T05:43:27;6.40;;;2.55;;
69754;SDS011;57023;52.218;5.158;2023-08-08T05:45:52;12.63;;;3.60;;
69754;SDS011;57023;52.218;5.158;2023-08-08T05:48:18;7.07;;;2.90;;
69754;SDS011;57023;52.218;5.158;2023-08-08T05:50:43;5.60;;;2.90;;
69754;SDS011;57023;52.218;5.158;2023-08-08T05:53:08;7.32;;;2.60;;
69754;SDS011;57023;52.218;5.158;2023-08-08T05:55:34;7.28;;;2.40;;
69754;SDS011;57023;52.218;5.158;2023-08-08T05:57:59;4.70;;;2.35;;
69754;SDS011;57023;52.218;5.158;2023-08-08T06:00:30;6.18;;;2.30;;
69754;SDS011;57023;52.218;5.158;2023-08-08T06:02:56;7.00;;;2.50;;
69754;SDS011;57023;52.218;5.158;2023-08-08T06:05:22;7.60;;;2.53;;
69754;SDS011;57023;52.218;5.158;2023-08-08T06:07:48;6.50;;;2.60;;
69754;SDS011;57023;52.218;5.158;2023-08-08T06:10:14;8.82;;;2.42;;
69754;SDS011;57023;52.218;5.158;2023-08-08T06:12:39;7.13;;;2.33;;
69754;SDS011;57023;52.218;5.158;2023-08-08T06:15:05;7.18;;;2.50;;
69754;SDS011;57023;52.218;5.158;2023-08-08T06:17:33;6.43;;;2.22;;
69754;SDS011;57023;52.218;5.158;2023-08-08T06:19:59;6.15;;;2.22;;
69754;SDS011;57023;52.218;5.158;2023-08-08T06:22:24;8.82;;;2.70;;
69754;SDS011;57023;52.218;5.158;2023-08-08T06:24:50;6.38;;;2.28;;
69754;SDS011;57023;52.218;5.158;2023-08-08T06:27:15;6.53;;;2.40;;
69754;SDS011;57023;52.218;5.158;2023-08-08T06:29:41;8.45;;;2.50;;
69754;SDS011;57023;52.218;5.158;2023-08-08T06:32:09;6.85;;;2.42;;
69754;SDS011;57023;52.218;5.158;2023-08-08T06:34:34;5.68;;;2.40;;
69754;SDS011;57023;52.218;5.158;2023-08-08T06:37:00;7.90;;;2.42;;
69754;SDS011;57023;52.218;5.158;2023-08-08T06:39:25;4.63;;;2.30;;
69754;SDS011;57023;52.218;5.158;2023-08-08T06:41:50;5.18;;;2.13;;
69754;SDS011;57023;52.218;5.158;2023-08-08T06:44:16;7.90;;;2.35;;
69754;SDS011;57023;52.218;5.158;2023-08-08T06:46:41;4.35;;;2.10;;
69754;SDS011;57023;52.218;5.158;2023-08-08T06:49:07;5.13;;;2.15;;
69754;SDS011;57023;52.218;5.158;2023-08-08T06:51:33;6.38;;;2.35;;
69754;SDS011;57023;52.218;5.158;2023-08-08T06:53:59;6.13;;;2.10;;
69754;SDS011;57023;52.218;5.158;2023-08-08T06:56:24;6.20;;;1.90;;
69754;SDS011;57023;52.218;5.158;2023-08-08T06:58:51;5.57;;;2.20;;
69754;SDS011;57023;52.218;5.158;2023-08-08T07:01:17;5.10;;;2.25;;
69754;SDS011;57023;52.218;5.158;2023-08-08T07:03:42;5.18;;;2.30;;
69754;SDS011;57023;52.218;5.158;2023-08-08T07:06:08;6.90;;;2.22;;
69754;SDS011;57023;52.218;5.158;2023-08-08T07:08:34;6.78;;;2.20;;
69754;SDS011;57023;52.218;5.158;2023-08-08T07:10:59;4.93;;;2.03;;
69754;SDS011;57023;52.218;5.158;2023-08-08T07:13:25;5.75;;;2.00;;
69754;SDS011;57023;52.218;5.158;2023-08-08T07:15:50;3.65;;;1.58;;
69754;SDS011;57023;52.218;5.158;2023-08-08T07:18:15;5.88;;;1.90;;
69754;SDS011;57023;52.218;5.158;2023-08-08T07:20:41;7.72;;;1.95;;
69754;SDS011;57023;52.218;5.158;2023-08-08T07:23:06;4.00;;;1.90;;
69754;SDS011;57023;52.218;5.158;2023-08-08T07:25:31;5.13;;;1.77;;
69754;SDS011;57023;52.218;5.158;2023-08-08T07:27:57;4.75;;;1.90;;
69754;SDS011;57023;52.218;5.158;2023-08-08T07:30:22;4.10;;;1.83;;
69754;SDS011;57023;52.218;5.158;2023-08-08T07:32:47;6.22;;;1.80;;
69754;SDS011;57023;52.218;5.158;2023-08-08T07:35:13;4.78;;;1.70;;
69754;SDS011;57023;52.218;5.158;2023-08-08T07:37:40;5.65;;;1.92;;
69754;SDS011;57023;52.218;5.158;2023-08-08T07:40:17;5.22;;;1.80;;
69754;SDS011;57023;52.218;5.158;2023-08-08T07:42:44;5.63;;;1.67;;
69754;SDS011;57023;52.218;5.158;2023-08-08T07:45:10;5.38;;;1.90;;
69754;SDS011;57023;52.218;5.158;2023-08-08T07:47:35;4.90;;;2.00;;
69754;SDS011;57023;52.218;5.158;2023-08-08T07:50:01;5.00;;;1.80;;
69754;SDS011;57023;52.218;5.158;2023-08-08T07:52:27;3.90;;;1.80;;
69754;SDS011;57023;52.218;5.158;2023-08-08T07:54:52;5.15;;;1.80;;
69754;SDS011;57023;52.218;5.158;2023-08-08T07:57:21;5.90;;;1.90;;
69754;SDS011;57023;52.218;5.158;2023-08-08T07:59:46;2.55;;;1.98;;
69754;SDS011;57023;52.218;5.158;2023-08-08T08:02:11;4.38;;;1.70;;
69754;SDS011;57023;52.218;5.158;2023-08-08T08:04:37;3.63;;;1.80;;
69754;SDS011;57023;52.218;5.158;2023-08-08T08:07:02;3.35;;;1.67;;
69754;SDS011;57023;52.218;5.158;2023-08-08T08:09:28;4.30;;;1.85;;
69754;SDS011;57023;52.218;5.158;2023-08-08T08:11:54;3.85;;;1.90;;
69754;SDS011;57023;52.218;5.158;2023-08-08T08:14:19;4.55;;;1.65;;
69754;SDS011;57023;52.218;5.158;2023-08-08T08:19:11;4.70;;;1.83;;
69754;SDS011;57023;52.218;5.158;2023-08-08T08:21:37;3.38;;;1.90;;
69754;SDS011;57023;52.218;5.158;2023-08-08T08:24:02;3.40;;;1.55;;
69754;SDS011;57023;52.218;5.158;2023-08-08T08:26:28;5.40;;;1.60;;
69754;SDS011;57023;52.218;5.158;2023-08-08T08:28:54;3.88;;;1.42;;
69754;SDS011;57023;52.218;5.158;2023-08-08T08:31:19;2.55;;;1.40;;
69754;SDS011;57023;52.218;5.158;2023-08-08T08:33:44;2.28;;;1.27;;
69754;SDS011;57023;52.218;5.158;2023-08-08T08:36:10;3.05;;;1.27;;
69754;SDS011;57023;52.218;5.158;2023-08-08T08:38:35;4.35;;;1.40;;
69754;SDS011;57023;52.218;5.158;2023-08-08T08:41:01;4.10;;;1.70;;
69754;SDS011;57023;52.218;5.158;2023-08-08T08:43:30;3.42;;;1.63;;
69754;SDS011;57023;52.218;5.158;2023-08-08T08:45:56;2.88;;;1.42;;
69754;SDS011;57023;52.218;5.158;2023-08-08T08:48:28;5.25;;;1.63;;
69754;SDS011;57023;52.218;5.158;2023-08-08T08:50:54;4.20;;;1.60;;
69754;SDS011;57023;52.218;5.158;2023-08-08T08:53:19;4.60;;;1.77;;
69754;SDS011;57023;52.218;5.158;2023-08-08T08:55:46;4.45;;;2.00;;
69754;SDS011;57023;52.218;5.158;2023-08-08T08:58:13;3.30;;;1.63;;
69754;SDS011;57023;52.218;5.158;2023-08-08T09:00:40;5.50;;;1.70;;
69754;SDS011;57023;52.218;5.158;2023-08-08T09:03:06;2.40;;;1.48;;
69754;SDS011;57023;52.218;5.158;2023-08-08T09:05:31;4.47;;;1.70;;
69754;SDS011;57023;52.218;5.158;2023-08-08T09:07:56;2.90;;;1.65;;
69754;SDS011;57023;52.218;5.158;2023-08-08T09:10:22;11.75;;;1.67;;
69754;SDS011;57023;52.218;5.158;2023-08-08T09:15:14;4.13;;;2.00;;
69754;SDS011;57023;52.218;5.158;2023-08-08T09:17:40;3.60;;;1.75;;
69754;SDS011;57023;52.218;5.158;2023-08-08T09:20:07;5.85;;;1.83;;
69754;SDS011;57023;52.218;5.158;2023-08-08T09:22:35;2.47;;;1.42;;
69754;SDS011;57023;52.218;5.158;2023-08-08T09:25:01;3.45;;;1.92;;
69754;SDS011;57023;52.218;5.158;2023-08-08T09:27:28;3.75;;;1.90;;
69754;SDS011;57023;52.218;5.158;2023-08-08T09:29:53;3.45;;;1.80;;
69754;SDS011;57023;52.218;5.158;2023-08-08T09:32:19;4.25;;;1.90;;
69754;SDS011;57023;52.218;5.158;2023-08-08T09:34:44;3.83;;;1.75;;
69754;SDS011;57023;52.218;5.158;2023-08-08T09:37:10;5.10;;;1.65;;
69754;SDS011;57023;52.218;5.158;2023-08-08T09:39:36;4.40;;;2.00;;
69754;SDS011;57023;52.218;5.158;2023-08-08T09:42:02;6.90;;;1.92;;
69754;SDS011;57023;52.218;5.158;2023-08-08T09:44:29;3.58;;;1.75;;
69754;SDS011;57023;52.218;5.158;2023-08-08T09:46:55;5.22;;;1.90;;
69754;SDS011;57023;52.218;5.158;2023-08-08T09:49:21;3.63;;;1.50;;
69754;SDS011;57023;52.218;5.158;2023-08-08T09:51:47;3.23;;;1.50;;
69754;SDS011;57023;52.218;5.158;2023-08-08T09:54:13;3.08;;;1.60;;
69754;SDS011;57023;52.218;5.158;2023-08-08T09:56:39;4.30;;;1.60;;
69754;SDS011;57023;52.218;5.158;2023-08-08T09:59:04;4.28;;;1.73;;
69754;SDS011;57023;52.218;5.158;2023-08-08T10:01:30;5.68;;;1.80;;
69754;SDS011;57023;52.218;5.158;2023-08-08T10:03:56;2.37;;;1.23;;
69754;SDS011;57023;52.218;5.158;2023-08-08T10:06:22;2.03;;;1.50;;
69754;SDS011;57023;52.218;5.158;2023-08-08T10:08:47;5.28;;;1.70;;
69754;SDS011;57023;52.218;5.158;2023-08-08T10:11:12;4.25;;;1.65;;
69754;SDS011;57023;52.218;5.158;2023-08-08T10:13:47;5.00;;;1.90;;
69754;SDS011;57023;52.218;5.158;2023-08-08T10:16:15;4.75;;;1.75;;
69754;SDS011;57023;52.218;5.158;2023-08-08T10:18:40;3.90;;;1.95;;
69754;SDS011;57023;52.218;5.158;2023-08-08T10:21:06;4.65;;;1.80;;
69754;SDS011;57023;52.218;5.158;2023-08-08T10:23:38;2.28;;;1.30;;
69754;SDS011;57023;52.218;5.158;2023-08-08T10:26:05;4.55;;;1.77;;
69754;SDS011;57023;52.218;5.158;2023-08-08T10:28:51;3.55;;;1.60;;
69754;SDS011;57023;52.218;5.158;2023-08-08T10:31:19;2.95;;;1.70;;
69754;SDS011;57023;52.218;5.158;2023-08-08T10:33:45;3.90;;;1.60;;
69754;SDS011;57023;52.218;5.158;2023-08-08T10:36:10;3.55;;;1.67;;
69754;SDS011;57023;52.218;5.158;2023-08-08T10:38:39;3.55;;;1.70;;
69754;SDS011;57023;52.218;5.158;2023-08-08T10:41:12;4.30;;;1.70;;
69754;SDS011;57023;52.218;5.158;2023-08-08T10:43:38;4.93;;;1.90;;
69754;SDS011;57023;52.218;5.158;2023-08-08T10:46:05;3.30;;;1.67;;
69754;SDS011;57023;52.218;5.158;2023-08-08T10:48:31;3.60;;;1.55;;
69754;SDS011;57023;52.218;5.158;2023-08-08T10:50:57;3.83;;;1.70;;
69754;SDS011;57023;52.218;5.158;2023-08-08T10:53:29;3.13;;;1.73;;
69754;SDS011;57023;52.218;5.158;2023-08-08T10:55:59;4.82;;;1.60;;
69754;SDS011;57023;52.218;5.158;2023-08-08T10:58:38;3.92;;;1.70;;
69754;SDS011;57023;52.218;5.158;2023-08-08T11:01:07;4.25;;;1.90;;
69754;SDS011;57023;52.218;5.158;2023-08-08T11:03:37;3.28;;;1.75;;
69754;SDS011;57023;52.218;5.158;2023-08-08T11:06:04;3.88;;;1.73;;
69754;SDS011;57023;52.218;5.158;2023-08-08T11:08:33;4.32;;;1.80;;
69754;SDS011;57023;52.218;5.158;2023-08-08T11:11:00;3.80;;;1.90;;
69754;SDS011;57023;52.218;5.158;2023-08-08T11:13:25;4.17;;;1.90;;
69754;SDS011;57023;52.218;5.158;2023-08-08T11:15:51;3.50;;;1.93;;
69754;SDS011;57023;52.218;5.158;2023-08-08T11:18:16;4.47;;;1.93;;
69754;SDS011;57023;52.218;5.158;2023-08-08T11:20:42;2.67;;;1.70;;
69754;SDS011;57023;52.218;5.158;2023-08-08T11:23:09;4.70;;;2.03;;
69754;SDS011;57023;52.218;5.158;2023-08-08T11:25:36;4.70;;;1.85;;
69754;SDS011;57023;52.218;5.158;2023-08-08T11:28:02;4.00;;;1.67;;
69754;SDS011;57023;52.218;5.158;2023-08-08T11:30:29;4.63;;;1.90;;
69754;SDS011;57023;52.218;5.158;2023-08-08T11:32:57;3.83;;;1.77;;
69754;SDS011;57023;52.218;5.158;2023-08-08T11:35:23;2.57;;;1.60;;
69754;SDS011;57023;52.218;5.158;2023-08-08T11:37:49;3.92;;;1.95;;
69754;SDS011;57023;52.218;5.158;2023-08-08T11:40:20;2.70;;;1.65;;
69754;SDS011;57023;52.218;5.158;2023-08-08T11:42:46;3.30;;;1.70;;
69754;SDS011;57023;52.218;5.158;2023-08-08T11:45:11;4.07;;;2.00;;
69754;SDS011;57023;52.218;5.158;2023-08-08T11:47:38;3.92;;;1.67;;
69754;SDS011;57023;52.218;5.158;2023-08-08T11:50:07;4.80;;;1.80;;
69754;SDS011;57023;52.218;5.158;2023-08-08T11:52:39;3.75;;;1.90;;
69754;SDS011;57023;52.218;5.158;2023-08-08T11:55:06;3.63;;;1.73;;
69754;SDS011;57023;52.218;5.158;2023-08-08T11:57:33;5.43;;;1.85;;
69754;SDS011;57023;52.218;5.158;2023-08-08T12:00:00;3.88;;;2.00;;
69754;SDS011;57023;52.218;5.158;2023-08-08T12:02:27;4.70;;;1.80;;
69754;SDS011;57023;52.218;5.158;2023-08-08T12:04:52;3.67;;;1.80;;
69754;SDS011;57023;52.218;5.158;2023-08-08T12:07:21;4.63;;;1.77;;
69754;SDS011;57023;52.218;5.158;2023-08-08T12:09:49;4.47;;;1.90;;
69754;SDS011;57023;52.218;5.158;2023-08-08T12:12:14;6.03;;;2.43;;
69754;SDS011;57023;52.218;5.158;2023-08-08T12:14:42;5.20;;;1.93;;
69754;SDS011;57023;52.218;5.158;2023-08-08T12:17:09;3.67;;;1.80;;
69754;SDS011;57023;52.218;5.158;2023-08-08T12:19:34;3.50;;;1.53;;
69754;SDS011;57023;52.218;5.158;2023-08-08T12:22:00;6.27;;;2.93;;
69754;SDS011;57023;52.218;5.158;2023-08-08T12:24:25;4.63;;;1.53;;
69754;SDS011;57023;52.218;5.158;2023-08-08T12:26:50;3.67;;;1.83;;
69754;SDS011;57023;52.218;5.158;2023-08-08T12:29:16;3.47;;;1.63;;
69754;SDS011;57023;52.218;5.158;2023-08-08T12:31:41;6.63;;;2.00;;
69754;SDS011;57023;52.218;5.158;2023-08-08T12:34:06;5.27;;;2.03;;
69754;SDS011;57023;52.218;5.158;2023-08-08T12:36:32;4.87;;;1.80;;
69754;SDS011;57023;52.218;5.158;2023-08-08T12:38:57;4.10;;;1.63;;
69754;SDS011;57023;52.218;5.158;2023-08-08T12:41:23;4.70;;;1.80;;
69754;SDS011;57023;52.218;5.158;2023-08-08T12:46:15;4.37;;;1.70;;
69754;SDS011;57023;52.218;5.158;2023-08-08T12:48:40;3.30;;;1.63;;
69754;SDS011;57023;52.218;5.158;2023-08-08T12:51:05;2.83;;;1.57;;
69754;SDS011;57023;52.218;5.158;2023-08-08T12:53:32;2.75;;;1.38;;
69754;SDS011;57023;52.218;5.158;2023-08-08T12:55:57;5.07;;;1.80;;
69754;SDS011;57023;52.218;5.158;2023-08-08T12:58:23;3.97;;;1.90;;
69754;SDS011;57023;52.218;5.158;2023-08-08T13:00:49;2.63;;;1.60;;
69754;SDS011;57023;52.218;5.158;2023-08-08T13:03:14;5.00;;;1.77;;
69754;SDS011;57023;52.218;5.158;2023-08-08T13:05:39;7.00;;;1.70;;
69754;SDS011;57023;52.218;5.158;2023-08-08T13:08:05;4.77;;;2.10;;
69754;SDS011;57023;52.218;5.158;2023-08-08T13:10:30;4.23;;;2.10;;
69754;SDS011;57023;52.218;5.158;2023-08-08T13:12:56;5.10;;;1.87;;
69754;SDS011;57023;52.218;5.158;2023-08-08T13:15:21;5.47;;;2.03;;
69754;SDS011;57023;52.218;5.158;2023-08-08T13:17:46;3.83;;;1.80;;
69754;SDS011;57023;52.218;5.158;2023-08-08T13:20:12;2.75;;;1.58;;
69754;SDS011;57023;52.218;5.158;2023-08-08T13:22:37;5.07;;;1.97;;
69754;SDS011;57023;52.218;5.158;2023-08-08T13:25:03;6.23;;;1.80;;
69754;SDS011;57023;52.218;5.158;2023-08-08T13:29:58;6.18;;;2.00;;
69754;SDS011;57023;52.218;5.158;2023-08-08T13:32:23;5.70;;;1.80;;
69754;SDS011;57023;52.218;5.158;2023-08-08T13:34:49;3.03;;;1.88;;
69754;SDS011;57023;52.218;5.158;2023-08-08T13:37:15;5.25;;;2.30;;
69754;SDS011;57023;52.218;5.158;2023-08-08T13:39:41;6.95;;;2.22;;
69754;SDS011;57023;52.218;5.158;2023-08-08T13:42:13;5.38;;;2.20;;
69754;SDS011;57023;52.218;5.158;2023-08-08T13:44:38;5.88;;;1.75;;
69754;SDS011;57023;52.218;5.158;2023-08-08T13:47:04;4.72;;;2.25;;
69754;SDS011;57023;52.218;5.158;2023-08-08T13:49:29;5.22;;;2.00;;
69754;SDS011;57023;52.218;5.158;2023-08-08T13:51:54;3.20;;;1.77;;
69754;SDS011;57023;52.218;5.158;2023-08-08T13:54:20;4.03;;;2.00;;
69754;SDS011;57023;52.218;5.158;2023-08-08T13:56:45;3.58;;;2.13;;
69754;SDS011;57023;52.218;5.158;2023-08-08T13:59:11;5.63;;;2.17;;
69754;SDS011;57023;52.218;5.158;2023-08-08T14:01:36;5.10;;;1.90;;
69754;SDS011;57023;52.218;5.158;2023-08-08T14:04:02;4.33;;;2.03;;
69754;SDS011;57023;52.218;5.158;2023-08-08T14:06:28;5.93;;;2.20;;
69754;SDS011;57023;52.218;5.158;2023-08-08T14:08:54;5.77;;;2.10;;
69754;SDS011;57023;52.218;5.158;2023-08-08T14:11:19;4.78;;;2.38;;
69754;SDS011;57023;52.218;5.158;2023-08-08T14:13:44;6.30;;;2.28;;
69754;SDS011;57023;52.218;5.158;2023-08-08T14:16:10;5.95;;;2.10;;
69754;SDS011;57023;52.218;5.158;2023-08-08T14:18:35;3.60;;;2.03;;
69754;SDS011;57023;52.218;5.158;2023-08-08T14:21:00;5.35;;;2.10;;
69754;SDS011;57023;52.218;5.158;2023-08-08T14:23:27;6.40;;;2.20;;
69754;SDS011;57023;52.218;5.158;2023-08-08T14:25:53;5.32;;;2.30;;
69754;SDS011;57023;52.218;5.158;2023-08-08T14:28:21;4.30;;;2.20;;
69754;SDS011;57023;52.218;5.158;2023-08-08T14:30:46;4.50;;;2.50;;
69754;SDS011;57023;52.218;5.158;2023-08-08T14:33:15;6.32;;;2.10;;
69754;SDS011;57023;52.218;5.158;2023-08-08T14:35:40;4.50;;;2.20;;
69754;SDS011;57023;52.218;5.158;2023-08-08T14:38:06;5.30;;;2.35;;
69754;SDS011;57023;52.218;5.158;2023-08-08T14:40:31;7.28;;;2.45;;
69754;SDS011;57023;52.218;5.158;2023-08-08T14:43:02;3.80;;;2.10;;
69754;SDS011;57023;52.218;5.158;2023-08-08T14:45:28;5.15;;;2.30;;
69754;SDS011;57023;52.218;5.158;2023-08-08T14:47:54;6.28;;;2.22;;